sensor_id;sensor_type;location;lat;lon;timestamp;pressure;altitude;pressure_sealevel;temperature;humidity
13407;BME280;6774;48.208;10.766;2023-07-13T00:02:20;95542.00;;;20.02;98.64
13407;BME280;6774;48.208;10.766;2023-07-13T00:04:47;95539.91;;;20.04;98.74
13407;BME280;6774;48.208;10.766;2023-07-13T00:07:15;95544.63;;;19.97;98.51
13407;BME280;6774;48.208;10.766;2023-07-13T00:09:46;95538.31;;;19.86;98.62
13407;BME280;6774;48.208;10.766;2023-07-13T00:12:25;95541.19;;;20.01;98.34
13407;BME280;6774;48.208;10.766;2023-07-13T00:14:57;95541.03;;;20.08;98.11
13407;BME280;6774;48.208;10.766;2023-07-13T00:17:27;95528.47;;;19.92;98.65
13407;BME280;6774;48.208;10.766;2023-07-13T00:19:55;95531.31;;;19.85;99.09
13407;BME280;6774;48.208;10.766;2023-07-13T00:22:24;95524.91;;;19.86;98.91
13407;BME280;6774;48.208;10.766;2023-07-13T00:24:53;95528.22;;;19.93;98.73
13407;BME280;6774;48.208;10.766;2023-07-13T00:27:23;95526.59;;;19.92;98.64
13407;BME280;6774;48.208;10.766;2023-07-13T00:29:53;95522.09;;;19.76;99.06
13407;BME280;6774;48.208;10.766;2023-07-13T00:32:22;95530.13;;;19.76;99.54
13407;BME280;6774;48.208;10.766;2023-07-13T00:34:51;95523.69;;;19.60;99.68
13407;BME280;6774;48.208;10.766;2023-07-13T00:37:19;95525.84;;;19.46;100.00
13407;BME280;6774;48.208;10.766;2023-07-13T00:39:47;95529.31;;;19.47;100.00
13407;BME280;6774;48.208;10.766;2023-07-13T00:42:15;95530.59;;;19.27;100.00
13407;BME280;6774;48.208;10.766;2023-07-13T00:45:01;95533.34;;;19.16;100.00
13407;BME280;6774;48.208;10.766;2023-07-13T00:47:30;95523.59;;;19.10;100.00
13407;BME280;6774;48.208;10.766;2023-07-13T00:49:58;95524.75;;;19.14;100.00
13407;BME280;6774;48.208;10.766;2023-07-13T00:52:26;95530.69;;;19.16;100.00
13407;BME280;6774;48.208;10.766;2023-07-13T00:54:55;95532.78;;;19.14;100.00
13407;BME280;6774;48.208;10.766;2023-07-13T00:57:24;95522.09;;;19.14;100.00
13407;BME280;6774;48.208;10.766;2023-07-13T00:59:54;95520.72;;;19.28;100.00
13407;BME280;6774;48.208;10.766;2023-07-13T01:02:23;95510.19;;;19.38;99.74
13407;BME280;6774;48.208;10.766;2023-07-13T01:04:53;95499.00;;;19.41;99.54
13407;BME280;6774;48.208;10.766;2023-07-13T01:07:21;95512.06;;;19.54;98.58
13407;BME280;6774;48.208;10.766;2023-07-13T01:09:48;95519.44;;;19.47;98.69
13407;BME280;6774;48.208;10.766;2023-07-13T01:12:18;95520.25;;;19.31;99.36
13407;BME280;6774;48.208;10.766;2023-07-13T01:14:46;95517.97;;;19.23;99.66
13407;BME280;6774;48.208;10.766;2023-07-13T01:17:14;95508.88;;;19.24;99.36
13407;BME280;6774;48.208;10.766;2023-07-13T01:19:44;95514.56;;;19.27;99.63
13407;BME280;6774;48.208;10.766;2023-07-13T01:22:15;95514.72;;;19.21;99.76
13407;BME280;6774;48.208;10.766;2023-07-13T01:24:46;95513.91;;;19.37;99.26
13407;BME280;6774;48.208;10.766;2023-07-13T01:27:16;95516.69;;;19.42;99.02
13407;BME280;6774;48.208;10.766;2023-07-13T01:29:45;95523.00;;;19.36;99.79
13407;BME280;6774;48.208;10.766;2023-07-13T01:32:17;95523.88;;;19.25;100.00
13407;BME280;6774;48.208;10.766;2023-07-13T01:34:53;95528.88;;;19.04;100.00
13407;BME280;6774;48.208;10.766;2023-07-13T01:37:23;95542.81;;;19.07;100.00
13407;BME280;6774;48.208;10.766;2023-07-13T01:39:51;95519.06;;;18.93;100.00
13407;BME280;6774;48.208;10.766;2023-07-13T01:42:19;95524.97;;;18.67;100.00
13407;BME280;6774;48.208;10.766;2023-07-13T01:44:47;95519.66;;;18.43;100.00
13407;BME280;6774;48.208;10.766;2023-07-13T01:47:15;95515.47;;;18.47;100.00
13407;BME280;6774;48.208;10.766;2023-07-13T01:49:44;95504.78;;;18.47;100.00
13407;BME280;6774;48.208;10.766;2023-07-13T01:52:14;95517.34;;;18.35;100.00
13407;BME280;6774;48.208;10.766;2023-07-13T01:54:43;95511.16;;;18.46;100.00
13407;BME280;6774;48.208;10.766;2023-07-13T01:57:10;95522.13;;;18.22;100.00
13407;BME280;6774;48.208;10.766;2023-07-13T01:59:38;95517.41;;;18.12;100.00
13407;BME280;6774;48.208;10.766;2023-07-13T02:02:06;95523.31;;;18.14;100.00
13407;BME280;6774;48.208;10.766;2023-07-13T02:04:34;95527.47;;;18.22;100.00
13407;BME280;6774;48.208;10.766;2023-07-13T02:07:02;95509.81;;;18.32;100.00
13407;BME280;6774;48.208;10.766;2023-07-13T02:09:30;95523.38;;;18.42;100.00
13407;BME280;6774;48.208;10.766;2023-07-13T02:11:59;95530.22;;;18.50;100.00
13407;BME280;6774;48.208;10.766;2023-07-13T02:14:32;95549.41;;;18.35;100.00
13407;BME280;6774;48.208;10.766;2023-07-13T02:17:00;95534.75;;;18.50;100.00
13407;BME280;6774;48.208;10.766;2023-07-13T02:19:27;95538.41;;;18.72;100.00
13407;BME280;6774;48.208;10.766;2023-07-13T02:21:55;95545.88;;;18.58;100.00
13407;BME280;6774;48.208;10.766;2023-07-13T02:24:23;95550.66;;;18.44;100.00
13407;BME280;6774;48.208;10.766;2023-07-13T02:26:51;95548.63;;;18.63;100.00
13407;BME280;6774;48.208;10.766;2023-07-13T02:29:21;95541.06;;;18.84;100.00
13407;BME280;6774;48.208;10.766;2023-07-13T02:31:49;95547.06;;;18.91;99.74
13407;BME280;6774;48.208;10.766;2023-07-13T02:34:17;95551.72;;;18.95;99.49
13407;BME280;6774;48.208;10.766;2023-07-13T02:36:45;95560.91;;;18.88;99.06
13407;BME280;6774;48.208;10.766;2023-07-13T02:39:13;95563.47;;;18.94;98.88
13407;BME280;6774;48.208;10.766;2023-07-13T02:41:41;95554.94;;;18.97;98.33
13407;BME280;6774;48.208;10.766;2023-07-13T02:44:09;95552.94;;;19.04;97.76
13407;BME280;6774;48.208;10.766;2023-07-13T02:46:38;95564.94;;;19.02;97.38
13407;BME280;6774;48.208;10.766;2023-07-13T02:49:06;95561.69;;;19.00;97.37
13407;BME280;6774;48.208;10.766;2023-07-13T02:51:34;95558.31;;;19.04;97.19
13407;BME280;6774;48.208;10.766;2023-07-13T02:54:04;95553.53;;;19.07;96.92
13407;BME280;6774;48.208;10.766;2023-07-13T02:56:32;95560.06;;;18.99;96.92
13407;BME280;6774;48.208;10.766;2023-07-13T02:59:00;95563.34;;;18.89;97.04
13407;BME280;6774;48.208;10.766;2023-07-13T03:01:29;95565.34;;;18.82;97.08
13407;BME280;6774;48.208;10.766;2023-07-13T03:03:58;95567.56;;;18.85;97.11
13407;BME280;6774;48.208;10.766;2023-07-13T03:06:26;95573.59;;;18.81;97.35
13407;BME280;6774;48.208;10.766;2023-07-13T03:08:57;95574.69;;;18.68;97.34
13407;BME280;6774;48.208;10.766;2023-07-13T03:11:24;95571.59;;;18.47;98.74
13407;BME280;6774;48.208;10.766;2023-07-13T03:14:07;95574.59;;;18.51;98.70
13407;BME280;6774;48.208;10.766;2023-07-13T03:16:37;95570.88;;;18.52;98.54
13407;BME280;6774;48.208;10.766;2023-07-13T03:19:06;95563.56;;;18.47;98.49
13407;BME280;6774;48.208;10.766;2023-07-13T03:21:34;95570.53;;;18.48;98.36
13407;BME280;6774;48.208;10.766;2023-07-13T03:24:02;95568.44;;;18.51;97.89
13407;BME280;6774;48.208;10.766;2023-07-13T03:26:29;95568.91;;;18.47;97.89
13407;BME280;6774;48.208;10.766;2023-07-13T03:28:57;95564.00;;;18.56;97.85
13407;BME280;6774;48.208;10.766;2023-07-13T03:31:27;95581.31;;;18.54;97.58
13407;BME280;6774;48.208;10.766;2023-07-13T03:33:56;95587.38;;;18.49;97.49
13407;BME280;6774;48.208;10.766;2023-07-13T03:36:29;95585.97;;;18.46;97.59
13407;BME280;6774;48.208;10.766;2023-07-13T03:39:03;95595.63;;;18.47;97.59
13407;BME280;6774;48.208;10.766;2023-07-13T03:41:52;95600.03;;;18.54;97.52
13407;BME280;6774;48.208;10.766;2023-07-13T03:44:19;95597.47;;;18.59;97.54
13407;BME280;6774;48.208;10.766;2023-07-13T03:46:52;95591.41;;;18.63;97.54
13407;BME280;6774;48.208;10.766;2023-07-13T03:49:20;95601.44;;;18.68;97.28
13407;BME280;6774;48.208;10.766;2023-07-13T03:51:49;95598.53;;;18.69;97.49
13407;BME280;6774;48.208;10.766;2023-07-13T03:54:20;95605.16;;;18.67;97.71
13407;BME280;6774;48.208;10.766;2023-07-13T03:56:47;95609.78;;;18.60;97.36
13407;BME280;6774;48.208;10.766;2023-07-13T03:59:17;95605.94;;;18.56;97.77
13407;BME280;6774;48.208;10.766;2023-07-13T04:01:45;95604.56;;;18.65;97.60
13407;BME280;6774;48.208;10.766;2023-07-13T04:04:13;95607.34;;;18.70;97.49
13407;BME280;6774;48.208;10.766;2023-07-13T04:06:42;95613.38;;;18.77;97.30
13407;BME280;6774;48.208;10.766;2023-07-13T04:09:12;95614.19;;;18.78;97.20
13407;BME280;6774;48.208;10.766;2023-07-13T04:11:41;95610.72;;;18.77;97.26
13407;BME280;6774;48.208;10.766;2023-07-13T04:14:09;95626.28;;;18.80;97.20
13407;BME280;6774;48.208;10.766;2023-07-13T04:16:36;95629.06;;;18.85;97.00
13407;BME280;6774;48.208;10.766;2023-07-13T04:19:04;95634.84;;;18.82;97.22
13407;BME280;6774;48.208;10.766;2023-07-13T04:21:32;95633.13;;;18.88;97.17
13407;BME280;6774;48.208;10.766;2023-07-13T04:24:00;95638.78;;;18.91;96.95
13407;BME280;6774;48.208;10.766;2023-07-13T04:26:29;95636.34;;;18.90;97.12
13407;BME280;6774;48.208;10.766;2023-07-13T04:28:57;95641.38;;;18.86;97.04
13407;BME280;6774;48.208;10.766;2023-07-13T04:31:25;95640.81;;;18.84;97.40
13407;BME280;6774;48.208;10.766;2023-07-13T04:33:53;95643.94;;;18.81;97.60
13407;BME280;6774;48.208;10.766;2023-07-13T04:36:20;95647.09;;;18.78;97.91
13407;BME280;6774;48.208;10.766;2023-07-13T04:38:48;95646.59;;;18.81;97.73
13407;BME280;6774;48.208;10.766;2023-07-13T04:41:16;95646.41;;;18.71;97.73
13407;BME280;6774;48.208;10.766;2023-07-13T04:43:45;95646.50;;;18.76;97.79
13407;BME280;6774;48.208;10.766;2023-07-13T04:46:15;95645.00;;;18.68;97.32
13407;BME280;6774;48.208;10.766;2023-07-13T04:48:44;95646.41;;;18.71;97.60
13407;BME280;6774;48.208;10.766;2023-07-13T04:51:12;95648.13;;;18.77;97.36
13407;BME280;6774;48.208;10.766;2023-07-13T04:53:40;95646.72;;;18.86;97.18
13407;BME280;6774;48.208;10.766;2023-07-13T04:56:08;95643.47;;;18.84;97.25
13407;BME280;6774;48.208;10.766;2023-07-13T04:58:36;95640.22;;;18.82;97.06
13407;BME280;6774;48.208;10.766;2023-07-13T05:01:06;95636.72;;;18.93;97.22
13407;BME280;6774;48.208;10.766;2023-07-13T05:03:35;95637.97;;;19.02;97.50
13407;BME280;6774;48.208;10.766;2023-07-13T05:06:05;95632.38;;;18.92;97.15
13407;BME280;6774;48.208;10.766;2023-07-13T05:08:33;95645.50;;;19.06;97.03
13407;BME280;6774;48.208;10.766;2023-07-13T05:11:01;95641.31;;;19.10;96.34
13407;BME280;6774;48.208;10.766;2023-07-13T05:13:30;95629.34;;;19.12;95.44
13407;BME280;6774;48.208;10.766;2023-07-13T05:15:59;95646.94;;;18.96;95.96
13407;BME280;6774;48.208;10.766;2023-07-13T05:18:28;95645.56;;;18.82;96.01
13407;BME280;6774;48.208;10.766;2023-07-13T05:20:58;95653.38;;;18.84;96.21
13407;BME280;6774;48.208;10.766;2023-07-13T05:23:26;95653.34;;;18.95;95.75
13407;BME280;6774;48.208;10.766;2023-07-13T05:25:54;95660.53;;;18.95;95.47
13407;BME280;6774;48.208;10.766;2023-07-13T05:28:22;95654.94;;;18.96;96.13
13407;BME280;6774;48.208;10.766;2023-07-13T05:30:50;95663.91;;;18.90;95.32
13407;BME280;6774;48.208;10.766;2023-07-13T05:33:18;95666.34;;;19.03;94.95
13407;BME280;6774;48.208;10.766;2023-07-13T05:35:47;95666.22;;;18.98;94.55
13407;BME280;6774;48.208;10.766;2023-07-13T05:38:15;95672.38;;;18.99;94.63
13407;BME280;6774;48.208;10.766;2023-07-13T05:40:43;95675.06;;;18.99;95.19
13407;BME280;6774;48.208;10.766;2023-07-13T05:43:11;95677.56;;;18.65;95.70
13407;BME280;6774;48.208;10.766;2023-07-13T05:45:39;95685.09;;;18.57;95.32
13407;BME280;6774;48.208;10.766;2023-07-13T05:48:06;95682.31;;;18.75;95.72
13407;BME280;6774;48.208;10.766;2023-07-13T05:50:34;95687.75;;;18.57;92.54
13407;BME280;6774;48.208;10.766;2023-07-13T05:53:04;95688.13;;;18.72;94.39
13407;BME280;6774;48.208;10.766;2023-07-13T05:55:32;95703.91;;;18.73;95.21
13407;BME280;6774;48.208;10.766;2023-07-13T05:58:00;95702.06;;;18.74;93.22
13407;BME280;6774;48.208;10.766;2023-07-13T06:00:28;95696.72;;;18.74;93.52
13407;BME280;6774;48.208;10.766;2023-07-13T06:02:56;95701.94;;;18.81;93.28
13407;BME280;6774;48.208;10.766;2023-07-13T06:05:25;95702.75;;;18.81;92.97
13407;BME280;6774;48.208;10.766;2023-07-13T06:07:53;95726.69;;;18.53;93.37
13407;BME280;6774;48.208;10.766;2023-07-13T06:10:22;95729.81;;;18.50;93.67
13407;BME280;6774;48.208;10.766;2023-07-13T06:12:50;95733.19;;;18.57;94.05
13407;BME280;6774;48.208;10.766;2023-07-13T06:15:18;95726.66;;;18.29;92.98
13407;BME280;6774;48.208;10.766;2023-07-13T06:17:46;95726.91;;;18.39;90.18
13407;BME280;6774;48.208;10.766;2023-07-13T06:20:14;95730.97;;;18.30;87.23
13407;BME280;6774;48.208;10.766;2023-07-13T06:22:42;95737.38;;;17.99;87.80
13407;BME280;6774;48.208;10.766;2023-07-13T06:25:09;95733.38;;;18.20;87.17
13407;BME280;6774;48.208;10.766;2023-07-13T06:27:38;95721.31;;;18.29;87.08
13407;BME280;6774;48.208;10.766;2023-07-13T06:30:07;95723.19;;;18.29;86.42
13407;BME280;6774;48.208;10.766;2023-07-13T06:32:35;95722.22;;;18.23;86.35
13407;BME280;6774;48.208;10.766;2023-07-13T06:35:07;95722.81;;;18.13;86.01
13407;BME280;6774;48.208;10.766;2023-07-13T06:37:35;95724.19;;;18.16;86.30
13407;BME280;6774;48.208;10.766;2023-07-13T06:40:03;95731.72;;;18.19;85.83
13407;BME280;6774;48.208;10.766;2023-07-13T06:42:31;95728.84;;;18.21;85.56
13407;BME280;6774;48.208;10.766;2023-07-13T06:45:00;95736.53;;;18.29;85.58
13407;BME280;6774;48.208;10.766;2023-07-13T06:47:28;95735.97;;;18.38;85.70
13407;BME280;6774;48.208;10.766;2023-07-13T06:49:59;95735.41;;;18.48;85.59
13407;BME280;6774;48.208;10.766;2023-07-13T06:52:27;95737.94;;;18.55;84.93
13407;BME280;6774;48.208;10.766;2023-07-13T06:54:55;95741.91;;;18.64;85.30
13407;BME280;6774;48.208;10.766;2023-07-13T06:57:23;95737.41;;;18.76;84.46
13407;BME280;6774;48.208;10.766;2023-07-13T06:59:50;95744.28;;;18.84;84.21
13407;BME280;6774;48.208;10.766;2023-07-13T07:02:19;95741.69;;;18.89;82.16
13407;BME280;6774;48.208;10.766;2023-07-13T07:04:47;95742.28;;;19.02;82.09
13407;BME280;6774;48.208;10.766;2023-07-13T07:07:15;95744.31;;;19.24;82.37
13407;BME280;6774;48.208;10.766;2023-07-13T07:09:43;95754.88;;;19.42;82.78
13407;BME280;6774;48.208;10.766;2023-07-13T07:12:10;95753.94;;;19.60;82.94
13407;BME280;6774;48.208;10.766;2023-07-13T07:14:41;95753.38;;;19.75;82.04
13407;BME280;6774;48.208;10.766;2023-07-13T07:17:08;95748.81;;;19.87;80.67
13407;BME280;6774;48.208;10.766;2023-07-13T07:19:38;95740.22;;;20.02;79.09
13407;BME280;6774;48.208;10.766;2023-07-13T07:22:07;95755.38;;;20.25;79.03
13407;BME280;6774;48.208;10.766;2023-07-13T07:24:34;95762.03;;;20.39;78.25
13407;BME280;6774;48.208;10.766;2023-07-13T07:27:03;95760.13;;;20.51;76.25
13407;BME280;6774;48.208;10.766;2023-07-13T07:29:33;95766.28;;;20.35;74.87
13407;BME280;6774;48.208;10.766;2023-07-13T07:32:05;95762.47;;;20.64;75.38
13407;BME280;6774;48.208;10.766;2023-07-13T07:34:45;95757.22;;;20.53;74.60
13407;BME280;6774;48.208;10.766;2023-07-13T07:37:13;95765.31;;;20.74;72.64
13407;BME280;6774;48.208;10.766;2023-07-13T07:39:44;95769.81;;;20.86;71.66
13407;BME280;6774;48.208;10.766;2023-07-13T07:42:32;95773.59;;;20.90;74.92
13407;BME280;6774;48.208;10.766;2023-07-13T07:45:00;95775.22;;;20.74;73.21
13407;BME280;6774;48.208;10.766;2023-07-13T07:47:28;95777.75;;;20.81;75.00
13407;BME280;6774;48.208;10.766;2023-07-13T07:49:57;95781.88;;;21.05;75.96
13407;BME280;6774;48.208;10.766;2023-07-13T07:52:25;95776.69;;;20.82;76.14
13407;BME280;6774;48.208;10.766;2023-07-13T07:54:53;95774.94;;;20.70;75.87
13407;BME280;6774;48.208;10.766;2023-07-13T07:57:23;95771.44;;;20.87;76.62
13407;BME280;6774;48.208;10.766;2023-07-13T07:59:54;95773.91;;;20.93;76.64
13407;BME280;6774;48.208;10.766;2023-07-13T08:02:25;95777.50;;;20.99;77.02
13407;BME280;6774;48.208;10.766;2023-07-13T08:04:57;95777.59;;;21.04;75.77
13407;BME280;6774;48.208;10.766;2023-07-13T08:07:30;95781.09;;;20.88;75.47
13407;BME280;6774;48.208;10.766;2023-07-13T08:09:58;95787.94;;;20.79;75.47
13407;BME280;6774;48.208;10.766;2023-07-13T08:12:26;95790.34;;;20.97;77.04
13407;BME280;6774;48.208;10.766;2023-07-13T08:14:57;95788.88;;;20.89;75.38
13407;BME280;6774;48.208;10.766;2023-07-13T08:17:27;95783.88;;;20.76;73.59
13407;BME280;6774;48.208;10.766;2023-07-13T08:19:54;95781.38;;;21.08;71.98
13407;BME280;6774;48.208;10.766;2023-07-13T08:22:24;95779.75;;;21.07;71.85
13407;BME280;6774;48.208;10.766;2023-07-13T08:24:51;95791.38;;;21.29;72.30
13407;BME280;6774;48.208;10.766;2023-07-13T08:27:23;95787.16;;;21.17;71.68
13407;BME280;6774;48.208;10.766;2023-07-13T08:29:52;95796.97;;;21.11;73.49
13407;BME280;6774;48.208;10.766;2023-07-13T08:32:21;95794.88;;;21.13;73.04
13407;BME280;6774;48.208;10.766;2023-07-13T08:34:49;95795.22;;;20.83;69.79
13407;BME280;6774;48.208;10.766;2023-07-13T08:37:17;95802.19;;;21.01;73.08
13407;BME280;6774;48.208;10.766;2023-07-13T08:39:50;95798.78;;;21.22;74.17
13407;BME280;6774;48.208;10.766;2023-07-13T08:42:32;95796.97;;;21.11;70.03
13407;BME280;6774;48.208;10.766;2023-07-13T08:45:08;95800.72;;;21.10;69.53
13407;BME280;6774;48.208;10.766;2023-07-13T08:47:43;95805.75;;;21.23;67.98
13407;BME280;6774;48.208;10.766;2023-07-13T08:50:15;95808.44;;;21.23;67.53
13407;BME280;6774;48.208;10.766;2023-07-13T08:52:45;95807.06;;;21.38;69.07
13407;BME280;6774;48.208;10.766;2023-07-13T08:55:17;95809.84;;;20.76;68.65
13407;BME280;6774;48.208;10.766;2023-07-13T08:57:50;95803.22;;;20.78;66.92
13407;BME280;6774;48.208;10.766;2023-07-13T09:00:20;95809.69;;;21.16;69.35
13407;BME280;6774;48.208;10.766;2023-07-13T09:02:54;95805.38;;;21.32;69.25
13407;BME280;6774;48.208;10.766;2023-07-13T09:05:27;95813.94;;;20.95;66.90
13407;BME280;6774;48.208;10.766;2023-07-13T09:08:06;95811.00;;;21.13;68.46
13407;BME280;6774;48.208;10.766;2023-07-13T09:10:41;95804.69;;;21.24;68.28
13407;BME280;6774;48.208;10.766;2023-07-13T09:13:22;95803.63;;;21.42;71.12
13407;BME280;6774;48.208;10.766;2023-07-13T09:15:54;95805.34;;;21.70;69.68
13407;BME280;6774;48.208;10.766;2023-07-13T09:18:27;95808.94;;;21.81;67.27
13407;BME280;6774;48.208;10.766;2023-07-13T09:20:58;95803.75;;;21.74;66.91
13407;BME280;6774;48.208;10.766;2023-07-13T09:23:28;95805.44;;;21.80;65.41
13407;BME280;6774;48.208;10.766;2023-07-13T09:26:04;95810.31;;;21.83;66.52
13407;BME280;6774;48.208;10.766;2023-07-13T09:28:37;95814.56;;;21.79;65.89
13407;BME280;6774;48.208;10.766;2023-07-13T09:31:08;95812.09;;;21.95;66.04
13407;BME280;6774;48.208;10.766;2023-07-13T09:33:39;95818.81;;;21.75;63.22
13407;BME280;6774;48.208;10.766;2023-07-13T09:36:19;95817.28;;;22.28;64.71
13407;BME280;6774;48.208;10.766;2023-07-13T09:38:48;95805.19;;;22.58;61.88
13407;BME280;6774;48.208;10.766;2023-07-13T09:41:26;95806.59;;;22.65;63.34
13407;BME280;6774;48.208;10.766;2023-07-13T09:44:10;95805.59;;;22.71;61.24
13407;BME280;6774;48.208;10.766;2023-07-13T09:46:42;95806.72;;;22.49;62.11
13407;BME280;6774;48.208;10.766;2023-07-13T09:49:13;95805.00;;;22.37;59.80
13407;BME280;6774;48.208;10.766;2023-07-13T09:51:41;95808.78;;;22.36;59.94
13407;BME280;6774;48.208;10.766;2023-07-13T09:54:20;95809.34;;;22.70;59.39
13407;BME280;6774;48.208;10.766;2023-07-13T09:56:54;95814.16;;;22.36;59.11
13407;BME280;6774;48.208;10.766;2023-07-13T09:59:24;95819.22;;;22.60;61.76
13407;BME280;6774;48.208;10.766;2023-07-13T10:01:51;95814.00;;;22.80;60.06
13407;BME280;6774;48.208;10.766;2023-07-13T10:04:21;95815.66;;;22.54;60.59
13407;BME280;6774;48.208;10.766;2023-07-13T10:07:04;95813.94;;;22.70;60.09
13407;BME280;6774;48.208;10.766;2023-07-13T10:09:52;95831.94;;;22.69;58.77
13407;BME280;6774;48.208;10.766;2023-07-13T10:12:24;95830.88;;;23.03;59.25
13407;BME280;6774;48.208;10.766;2023-07-13T10:14:54;95822.84;;;23.08;58.73
13407;BME280;6774;48.208;10.766;2023-07-13T10:17:38;95826.22;;;23.25;58.07
13407;BME280;6774;48.208;10.766;2023-07-13T10:20:07;95828.06;;;23.62;56.70
13407;BME280;6774;48.208;10.766;2023-07-13T10:22:44;95827.03;;;23.73;53.86
13407;BME280;6774;48.208;10.766;2023-07-13T10:25:15;95831.47;;;23.99;52.60
13407;BME280;6774;48.208;10.766;2023-07-13T10:27:47;95823.81;;;24.54;52.32
13407;BME280;6774;48.208;10.766;2023-07-13T10:30:19;95820.59;;;24.62;54.84
13407;BME280;6774;48.208;10.766;2023-07-13T10:32:50;95825.22;;;25.07;52.92
13407;BME280;6774;48.208;10.766;2023-07-13T10:35:20;95823.53;;;24.96;51.90
13407;BME280;6774;48.208;10.766;2023-07-13T10:37:51;95826.03;;;23.89;51.60
13407;BME280;6774;48.208;10.766;2023-07-13T10:40:27;95824.31;;;23.68;50.68
13407;BME280;6774;48.208;10.766;2023-07-13T10:42:59;95823.66;;;23.98;51.07
13407;BME280;6774;48.208;10.766;2023-07-13T10:45:29;95822.91;;;24.18;52.88
13407;BME280;6774;48.208;10.766;2023-07-13T10:47:58;95812.75;;;24.45;54.05
13407;BME280;6774;48.208;10.766;2023-07-13T10:50:29;95823.56;;;24.91;54.68
13407;BME280;6774;48.208;10.766;2023-07-13T10:53:02;95816.00;;;24.83;53.59
13407;BME280;6774;48.208;10.766;2023-07-13T10:55:32;95818.16;;;24.65;54.03
13407;BME280;6774;48.208;10.766;2023-07-13T10:58:13;95818.16;;;24.65;54.08
13407;BME280;6774;48.208;10.766;2023-07-13T11:00:46;95813.03;;;24.69;52.51
13407;BME280;6774;48.208;10.766;2023-07-13T11:03:17;95812.75;;;25.21;51.57
13407;BME280;6774;48.208;10.766;2023-07-13T11:05:48;95818.44;;;24.89;54.43
13407;BME280;6774;48.208;10.766;2023-07-13T11:08:20;95814.34;;;25.48;52.37
13407;BME280;6774;48.208;10.766;2023-07-13T11:10:51;95816.28;;;25.22;52.00
13407;BME280;6774;48.208;10.766;2023-07-13T11:16:42;95815.34;;;25.83;51.46
13407;BME280;6774;48.208;10.766;2023-07-13T11:19:39;95825.72;;;24.84;53.38
13407;BME280;6774;48.208;10.766;2023-07-13T11:22:13;95818.97;;;24.66;55.02
13407;BME280;6774;48.208;10.766;2023-07-13T11:24:58;95835.81;;;24.05;54.07
13407;BME280;6774;48.208;10.766;2023-07-13T11:27:39;95823.75;;;23.66;56.31
13407;BME280;6774;48.208;10.766;2023-07-13T11:30:21;95831.84;;;23.66;56.96
13407;BME280;6774;48.208;10.766;2023-07-13T11:32:52;95832.19;;;23.32;58.09
13407;BME280;6774;48.208;10.766;2023-07-13T11:35:34;95828.88;;;23.67;54.36
13407;BME280;6774;48.208;10.766;2023-07-13T11:38:12;95834.91;;;23.37;54.65
13407;BME280;6774;48.208;10.766;2023-07-13T11:40:44;95834.59;;;23.76;53.74
13407;BME280;6774;48.208;10.766;2023-07-13T11:43:22;95834.16;;;23.99;55.14
13407;BME280;6774;48.208;10.766;2023-07-13T11:45:52;95823.97;;;24.17;54.49
13407;BME280;6774;48.208;10.766;2023-07-13T11:48:22;95814.47;;;24.04;54.28
13407;BME280;6774;48.208;10.766;2023-07-13T11:50:53;95826.56;;;23.91;55.13
13407;BME280;6774;48.208;10.766;2023-07-13T11:53:26;95823.81;;;23.71;56.77
13407;BME280;6774;48.208;10.766;2023-07-13T11:55:56;95831.56;;;23.20;55.92
13407;BME280;6774;48.208;10.766;2023-07-13T11:58:26;95823.81;;;23.71;55.95
13407;BME280;6774;48.208;10.766;2023-07-13T12:00:58;95830.31;;;23.85;56.49
13407;BME280;6774;48.208;10.766;2023-07-13T12:03:28;95826.28;;;23.82;54.98
13407;BME280;6774;48.208;10.766;2023-07-13T12:06:01;95818.78;;;24.00;55.28
13407;BME280;6774;48.208;10.766;2023-07-13T12:08:29;95812.53;;;23.79;52.43
13407;BME280;6774;48.208;10.766;2023-07-13T12:11:00;95803.31;;;24.43;53.13
13407;BME280;6774;48.208;10.766;2023-07-13T12:13:35;95798.72;;;24.63;54.20
13407;BME280;6774;48.208;10.766;2023-07-13T12:16:11;95801.41;;;24.68;52.72
13407;BME280;6774;48.208;10.766;2023-07-13T12:18:39;95803.84;;;25.01;55.82
13407;BME280;6774;48.208;10.766;2023-07-13T12:21:13;95799.53;;;25.00;50.30
13407;BME280;6774;48.208;10.766;2023-07-13T12:23:43;95790.63;;;25.09;49.15
13407;BME280;6774;48.208;10.766;2023-07-13T12:26:12;95787.91;;;25.14;49.00
13407;BME280;6774;48.208;10.766;2023-07-13T12:28:45;95785.25;;;24.89;49.76
13407;BME280;6774;48.208;10.766;2023-07-13T12:31:33;95779.53;;;25.21;54.34
13407;BME280;6774;48.208;10.766;2023-07-13T12:34:03;95772.78;;;25.29;49.74
13407;BME280;6774;48.208;10.766;2023-07-13T12:36:36;95770.91;;;24.99;53.12
13407;BME280;6774;48.208;10.766;2023-07-13T12:39:12;95763.13;;;24.51;53.07
13407;BME280;6774;48.208;10.766;2023-07-13T12:41:41;95769.31;;;24.72;52.25
13407;BME280;6774;48.208;10.766;2023-07-13T12:44:12;95772.28;;;24.91;56.29
13407;BME280;6774;48.208;10.766;2023-07-13T12:46:52;95763.09;;;24.92;53.66
13407;BME280;6774;48.208;10.766;2023-07-13T12:49:24;95773.34;;;25.05;51.50
13407;BME280;6774;48.208;10.766;2023-07-13T12:51:56;95770.66;;;24.80;49.53
13407;BME280;6774;48.208;10.766;2023-07-13T12:54:26;95763.59;;;25.30;50.82
13407;BME280;6774;48.208;10.766;2023-07-13T12:56:56;95772.81;;;24.98;50.65
13407;BME280;6774;48.208;10.766;2023-07-13T12:59:28;95757.66;;;25.22;51.61
13407;BME280;6774;48.208;10.766;2023-07-13T13:02:00;95747.41;;;25.19;51.15
13407;BME280;6774;48.208;10.766;2023-07-13T13:04:30;95751.63;;;25.56;53.88
13407;BME280;6774;48.208;10.766;2023-07-13T13:07:02;95754.13;;;25.42;50.32
13407;BME280;6774;48.208;10.766;2023-07-13T13:09:31;95753.19;;;25.67;49.95
13407;BME280;6774;48.208;10.766;2023-07-13T13:11:59;95762.44;;;25.56;49.99
13407;BME280;6774;48.208;10.766;2023-07-13T13:14:27;95761.28;;;25.77;50.36
13407;BME280;6774;48.208;10.766;2023-07-13T13:16:54;95754.06;;;25.52;51.01
13407;BME280;6774;48.208;10.766;2023-07-13T13:19:27;95762.44;;;25.56;51.75
13407;BME280;6774;48.208;10.766;2023-07-13T13:21:56;95755.16;;;25.41;54.13